createdAt,value
2018-12-25T00:00:14.403Z,99845.47
2018-12-25T00:01:37.042Z,99849.33
2018-12-25T00:26:21.451Z,99855.58
2018-12-25T00:31:53.718Z,99852.31
2018-12-25T00:35:05.158Z,99841.04
2018-12-25T00:44:53.454Z,99850.64
2018-12-25T00:54:47.217Z,99833.87
2018-12-25T00:57:49.876Z,99829.02
2018-12-25T01:00:48.510Z,99826.33
2018-12-25T01:04:00.142Z,99838.52
2018-12-25T01:07:26.873Z,99838.73
2018-12-25T01:20:11.427Z,99894.25
2018-12-25T01:23:26.192Z,99882.49
2018-12-25T01:33:06.333Z,99878.25
2018-12-25T01:37:58.950Z,99875.36
2018-12-25T01:42:30.767Z,99878.47
2018-12-25T01:49:21.414Z,99882.27
2018-12-25T01:51:29.414Z,99884.84
2018-12-25T01:54:00.456Z,99881.86
2018-12-25T01:56:31.400Z,99875.40
2018-12-25T01:59:02.451Z,99873.20
2018-12-25T02:01:33.319Z,99879.63
2018-12-25T02:04:04.293Z,99883.92
2018-12-25T02:06:35.259Z,99888.60
2018-12-25T02:09:06.985Z,99892.55
2018-12-25T02:11:37.958Z,99895.06
2018-12-25T02:14:09.010Z,99901.44
2018-12-25T02:16:39.905Z,99892.41
2018-12-25T02:19:10.780Z,99886.81
2018-12-25T02:21:41.807Z,99881.22
2018-12-25T02:24:12.793Z,99874.76
2018-12-25T02:26:43.686Z,99873.84
2018-12-25T02:29:14.631Z,99866.52
2018-12-25T02:31:45.617Z,99864.36
2018-12-25T02:34:16.710Z,99862.70
2018-12-25T02:36:47.657Z,99857.52
2018-12-25T02:39:18.698Z,99863.13
2018-12-25T02:41:49.663Z,99859.31
2018-12-25T02:44:20.595Z,99860.52
2018-12-25T02:46:51.606Z,99861.38
2018-12-25T02:49:22.485Z,99856.66
2018-12-25T02:51:53.453Z,99859.27
2018-12-25T02:54:26.646Z,99857.52
2018-12-25T02:56:57.071Z,99864.82
2018-12-25T02:59:28.106Z,99861.80
2018-12-25T03:01:59.028Z,99857.48
2018-12-25T03:04:29.994Z,99859.95
2018-12-25T03:07:00.964Z,99857.85
2018-12-25T03:09:31.906Z,99853.67
2018-12-25T03:12:02.811Z,99851.94
2018-12-25T03:14:33.800Z,99848.95
2018-12-25T03:17:04.947Z,99851.48
2018-12-25T03:19:35.820Z,99845.48
2018-12-25T03:22:06.807Z,99839.39
2018-12-25T03:24:37.690Z,99832.97
2018-12-25T03:27:08.645Z,99838.52
2018-12-25T03:29:39.579Z,99841.94
2018-12-25T03:32:10.470Z,99838.51
2018-12-25T03:34:41.413Z,99838.09
2018-12-25T03:37:12.372Z,99838.88
2018-12-25T03:39:43.392Z,99838.83
2018-12-25T03:42:15.357Z,99842.72
2018-12-25T03:44:46.276Z,99846.62
2018-12-25T03:47:17.250Z,99841.48
2018-12-25T03:49:48.097Z,99843.65
2018-12-25T03:52:19.087Z,99836.81
2018-12-25T03:54:49.990Z,99834.25
2018-12-25T03:57:20.974Z,99835.07
2018-12-25T03:59:51.950Z,99829.07
2018-12-25T04:02:22.787Z,99835.90
2018-12-25T04:04:53.627Z,99832.42
2018-12-25T04:07:24.675Z,99834.62
2018-12-25T04:09:55.609Z,99830.00
2018-12-25T04:12:26.574Z,99828.71
2018-12-25T04:14:57.443Z,99823.13
2018-12-25T04:17:28.475Z,99824.81
2018-12-25T04:19:59.320Z,99821.33
2018-12-25T04:22:30.235Z,99820.09
2018-12-25T04:25:01.111Z,99819.59
2018-12-25T04:27:32.083Z,99818.81
2018-12-25T04:30:03.021Z,99824.31
2018-12-25T04:32:33.962Z,99823.53
2018-12-25T04:35:04.899Z,99822.25
2018-12-25T04:37:35.856Z,99821.42
2018-12-25T04:40:07.377Z,99827.43
2018-12-25T04:42:38.416Z,99829.58
2018-12-25T04:45:09.319Z,99825.32
2018-12-25T04:47:40.373Z,99826.19
2018-12-25T04:50:11.323Z,99829.62
2018-12-25T04:52:42.236Z,99833.15
2018-12-25T04:55:13.174Z,99845.11
2018-12-25T04:57:44.194Z,99844.61
2018-12-25T05:00:15.207Z,99837.82
2018-12-25T05:02:46.190Z,99828.88
2018-12-25T05:05:17.458Z,99837.00
2018-12-25T05:07:48.421Z,99841.72
2018-12-25T05:10:19.444Z,99843.78
2018-12-25T05:12:50.355Z,99847.67
2018-12-25T05:15:21.288Z,99850.25
2018-12-25T05:17:52.256Z,99848.23
2018-12-25T05:20:23.198Z,99840.94
2018-12-25T05:22:54.110Z,99842.22
2018-12-25T05:25:25.027Z,99842.27
2018-12-25T05:27:55.945Z,99843.09
2018-12-25T05:30:26.930Z,99843.09
2018-12-25T05:32:57.970Z,99837.96
2018-12-25T05:35:29.019Z,99836.18
2018-12-25T05:38:00.050Z,99834.94
2018-12-25T05:40:30.944Z,99833.24
2018-12-25T05:43:02.030Z,99828.02
2018-12-25T05:45:33.037Z,99821.59
2018-12-25T05:48:04.050Z,99820.73
2018-12-25T05:50:35.182Z,99828.02
2018-12-25T05:53:06.113Z,99830.12
2018-12-25T05:55:37.084Z,99836.13
2018-12-25T05:58:08.074Z,99831.82
2018-12-25T06:00:39.039Z,99827.10
2018-12-25T06:03:09.902Z,99837.78
2018-12-25T06:05:40.896Z,99836.13
2018-12-25T06:08:11.848Z,99834.84
2018-12-25T06:10:42.726Z,99829.31
2018-12-25T06:13:13.759Z,99826.27
2018-12-25T06:15:44.773Z,99828.02
2018-12-25T06:18:15.734Z,99827.61
2018-12-25T06:20:54.949Z,99831.50
2018-12-25T06:23:19.488Z,99842.64
2018-12-25T06:25:50.393Z,99852.91
2018-12-25T06:28:21.523Z,99854.64
2018-12-25T06:30:52.479Z,99856.88
2018-12-25T06:33:23.494Z,99856.16
2018-12-25T06:35:54.435Z,99852.34
2018-12-25T06:38:25.329Z,99848.09
2018-12-25T06:40:56.244Z,99847.21
2018-12-25T06:43:31.137Z,99848.91
2018-12-25T06:46:07.350Z,99838.60
2018-12-25T06:48:45.649Z,99853.59
2018-12-25T06:51:22.371Z,99848.50
2018-12-25T06:53:57.426Z,99842.59
2018-12-25T06:56:31.578Z,99857.12
2018-12-25T06:59:05.664Z,99854.14
2018-12-25T07:01:41.594Z,99855.79
2018-12-25T07:04:16.545Z,99850.61
2018-12-25T07:06:54.844Z,99844.64
2018-12-25T07:09:48.965Z,99855.38
2018-12-25T07:12:25.772Z,99857.08
2018-12-25T07:14:58.745Z,99866.92
2018-12-25T07:17:37.516Z,99860.05
2018-12-25T07:20:15.003Z,99857.94
2018-12-25T07:22:45.896Z,99857.12
2018-12-25T07:25:16.838Z,99846.84
2018-12-25T07:27:47.784Z,99854.97
2018-12-25T07:30:22.604Z,99853.72
2018-12-25T07:32:59.274Z,99846.48
2018-12-25T07:35:34.417Z,99843.54
2018-12-25T07:38:16.174Z,99847.03
2018-12-25T07:40:54.784Z,99849.68
2018-12-25T07:43:31.522Z,99853.53
2018-12-25T07:46:09.251Z,99847.61
2018-12-25T07:48:45.647Z,99853.57
2018-12-25T07:51:20.887Z,99848.91
2018-12-25T07:53:57.099Z,99843.47
2018-12-25T07:56:35.348Z,99835.81
2018-12-25T07:59:13.411Z,99833.62
2018-12-25T08:01:51.444Z,99839.67
2018-12-25T08:04:33.163Z,99845.80
2018-12-25T08:07:10.858Z,99836.44
2018-12-25T08:09:48.445Z,99830.86
2018-12-25T08:12:24.128Z,99833.50
2018-12-25T08:14:57.982Z,99836.94
2018-12-25T08:17:29.025Z,99828.90
2018-12-25T08:19:59.882Z,99826.42
2018-12-25T08:22:30.847Z,99825.63
2018-12-25T08:25:01.814Z,99825.63
2018-12-25T08:27:33.463Z,99822.23
2018-12-25T08:30:05.573Z,99819.25
2018-12-25T08:32:36.917Z,99827.08
2018-12-25T08:35:08.471Z,99832.83
2018-12-25T08:37:40.654Z,99826.18
2018-12-25T08:40:17.891Z,99825.47
2018-12-25T08:42:56.230Z,99828.08
2018-12-25T08:45:27.654Z,99832.08
2018-12-25T08:47:58.623Z,99831.25
2018-12-25T08:50:29.556Z,99825.39
2018-12-25T08:53:01.091Z,99830.19
2018-12-25T08:55:32.666Z,99842.80
2018-12-25T08:58:04.657Z,99839.92
2018-12-25T09:00:36.025Z,99842.53
2018-12-25T09:03:07.523Z,99843.30
2018-12-25T09:05:39.474Z,99844.55
2018-12-25T09:08:10.504Z,99850.56
2018-12-25T09:10:42.397Z,99864.93
2018-12-25T09:13:14.286Z,99855.37
2018-12-25T09:15:45.836Z,99851.77
2018-12-25T09:18:16.797Z,99856.20
2018-12-25T09:20:47.684Z,99854.08
2018-12-25T09:23:18.633Z,99859.30
2018-12-25T09:25:50.565Z,99863.80
2018-12-25T09:28:22.116Z,99860.68
2018-12-25T09:30:53.621Z,99854.81
2018-12-25T09:33:24.821Z,99848.80
2018-12-25T09:35:58.146Z,99844.10
2018-12-25T09:38:32.721Z,99854.42
2018-12-25T09:41:25.180Z,99842.16
2018-12-25T09:44:16.483Z,99828.48
2018-12-25T09:49:56.279Z,99819.00
2018-12-25T09:52:33.074Z,99814.81
2018-12-25T09:55:09.734Z,99822.54
2018-12-25T09:57:47.711Z,99814.33
2018-12-25T10:00:26.248Z,99816.20
2018-12-25T10:03:01.369Z,99821.05
2018-12-25T10:05:38.066Z,99815.58
2018-12-25T10:08:14.233Z,99803.26
2018-12-25T10:10:46.878Z,99810.47
2018-12-25T10:13:20.591Z,99798.41
2018-12-25T10:15:54.325Z,99790.76
2018-12-25T10:18:29.528Z,99800.25
2018-12-25T10:21:00.471Z,99792.48
2018-12-25T10:23:32.547Z,99796.73
2018-12-25T10:26:05.411Z,99790.58
2018-12-25T10:28:37.438Z,99789.77
2018-12-25T10:31:08.996Z,99784.86
2018-12-25T10:33:40.444Z,99779.75
2018-12-25T10:36:11.791Z,99784.02
2018-12-25T10:38:43.624Z,99772.89
2018-12-25T10:41:14.672Z,99778.67
2018-12-25T10:43:45.947Z,99765.50
2018-12-25T10:46:16.835Z,99767.36
2018-12-25T10:48:47.909Z,99765.24
2018-12-25T10:51:18.845Z,99757.94
2018-12-25T10:53:49.709Z,99759.58
2018-12-25T10:56:21.604Z,99749.71
2018-12-25T10:58:53.245Z,99757.81
2018-12-25T11:01:24.260Z,99752.45
2018-12-25T11:04:00.063Z,99750.31
2018-12-25T11:06:37.228Z,99740.90
2018-12-25T11:09:11.471Z,99745.58
2018-12-25T11:11:45.085Z,99740.25
2018-12-25T11:14:16.458Z,99745.78
2018-12-25T11:20:44.558Z,99764.67
2018-12-25T11:23:16.927Z,99763.83
2018-12-25T11:25:48.907Z,99765.12
2018-12-25T11:28:21.143Z,99766.96
2018-12-25T11:30:52.003Z,99764.14
2018-12-25T11:33:22.905Z,99761.17
2018-12-25T11:35:54.048Z,99746.15
2018-12-25T11:38:25.361Z,99744.44
2018-12-25T11:41:04.983Z,99747.00
2018-12-25T11:43:35.919Z,99760.22
2018-12-25T11:46:06.940Z,99767.50
2018-12-25T11:48:38.572Z,99777.91
2018-12-25T11:51:09.743Z,99787.97
2018-12-25T11:53:40.883Z,99783.80
2018-12-25T11:56:12.252Z,99781.65
2018-12-25T11:58:48.356Z,99776.73
2018-12-25T12:01:19.624Z,99780.49
2018-12-25T12:03:51.011Z,99780.05
2018-12-25T12:06:22.558Z,99795.03
2018-12-25T12:08:54.240Z,99797.73
2018-12-25T12:11:25.322Z,99791.86
2018-12-25T12:13:56.736Z,99796.67
2018-12-25T12:16:36.427Z,99800.11
2018-12-25T12:19:07.817Z,99801.84
2018-12-25T12:21:39.939Z,99799.83
2018-12-25T12:24:12.011Z,99795.52
2018-12-25T12:26:43.019Z,99798.07
2018-12-25T12:29:14.209Z,99799.03
2018-12-25T12:31:45.637Z,99800.72
2018-12-25T12:34:18.554Z,99803.14
2018-12-25T12:36:52.059Z,99806.53
2018-12-25T12:39:23.553Z,99812.60
2018-12-25T12:41:56.236Z,99815.58
2018-12-25T12:44:27.895Z,99819.94
2018-12-25T12:46:59.457Z,99817.36
2018-12-25T12:49:31.551Z,99814.41
2018-12-25T12:52:03.129Z,99825.59
2018-12-25T12:54:34.832Z,99824.30
2018-12-25T12:57:07.088Z,99828.98
2018-12-25T12:59:38.205Z,99823.41
2018-12-25T13:02:09.267Z,99831.12
2018-12-25T13:04:40.361Z,99831.06
2018-12-25T13:07:11.760Z,99823.33
2018-12-25T13:09:43.152Z,99820.38
2018-12-25T13:12:14.027Z,99825.06
2018-12-25T13:14:44.892Z,99823.92
2018-12-25T13:17:16.388Z,99824.40
2018-12-25T13:19:48.719Z,99828.28
2018-12-25T13:22:20.107Z,99828.36
2018-12-25T13:24:51.297Z,99832.59
2018-12-25T13:27:22.633Z,99832.98
2018-12-25T13:29:54.003Z,99834.63
2018-12-25T13:32:25.266Z,99834.98
2018-12-25T13:34:57.659Z,99832.75
2018-12-25T13:37:28.814Z,99826.70
2018-12-25T13:39:59.984Z,99838.59
2018-12-25T13:42:31.607Z,99839.75
2018-12-25T13:45:02.949Z,99846.16
2018-12-25T13:47:34.046Z,99843.56
2018-12-25T13:50:07.993Z,99846.05
2018-12-25T13:52:39.371Z,99847.45
2018-12-25T13:55:10.789Z,99846.53
2018-12-25T13:57:44.317Z,99848.27
2018-12-25T14:00:16.326Z,99849.10
2018-12-25T14:02:47.959Z,99844.34
2018-12-25T14:05:19.011Z,99836.67
2018-12-25T14:07:51.175Z,99833.25
2018-12-25T14:10:22.873Z,99835.83
2018-12-25T14:12:54.113Z,99842.72
2018-12-25T14:15:25.579Z,99844.45
2018-12-25T14:17:56.930Z,99835.89
2018-12-25T14:20:28.459Z,99841.41
2018-12-25T14:22:59.917Z,99842.19
2018-12-25T14:25:31.265Z,99850.36
2018-12-25T14:28:02.743Z,99847.34
2018-12-25T14:30:34.421Z,99855.06
2018-12-25T14:33:05.692Z,99858.13
2018-12-25T14:35:37.163Z,99855.55
2018-12-25T14:38:08.927Z,99857.22
2018-12-25T14:40:40.680Z,99846.95
2018-12-25T14:43:12.523Z,99853.36
2018-12-25T14:45:44.285Z,99857.64
2018-12-25T14:48:15.505Z,99861.03
2018-12-25T14:50:47.826Z,99859.77
2018-12-25T14:53:28.700Z,99858.39
2018-12-25T14:56:00.263Z,99860.13
2018-12-25T14:58:32.724Z,99862.68
2018-12-25T15:01:04.400Z,99863.94
2018-12-25T15:03:35.512Z,99869.48
2018-12-25T15:06:06.663Z,99878.44
2018-12-25T15:08:38.062Z,99875.35
2018-12-25T15:11:09.655Z,99884.37
2018-12-25T15:13:40.590Z,99883.91
2018-12-25T15:16:12.267Z,99885.66
2018-12-25T15:18:43.992Z,99881.82
2018-12-25T15:21:15.219Z,99881.82
2018-12-25T15:23:53.016Z,99882.62
2018-12-25T15:26:24.567Z,99886.87
2018-12-25T15:28:55.925Z,99880.44
2018-12-25T15:31:27.420Z,99880.83
2018-12-25T15:33:59.009Z,99882.50
2018-12-25T15:36:30.513Z,99879.03
2018-12-25T15:39:02.907Z,99881.61
2018-12-25T15:41:34.198Z,99885.89
2018-12-25T15:44:05.143Z,99889.27
2018-12-25T15:46:36.537Z,99890.10
2018-12-25T15:49:07.502Z,99884.86
2018-12-25T15:54:13.502Z,99882.98
2018-12-25T15:56:44.620Z,99882.54
2018-12-25T15:59:15.564Z,99876.55
2018-12-25T16:01:46.476Z,99877.81
2018-12-25T16:04:17.666Z,99875.20
2018-12-25T16:06:48.600Z,99880.77
2018-12-25T16:09:19.557Z,99876.03
2018-12-25T16:11:50.486Z,99870.89
2018-12-25T16:14:22.245Z,99879.03
2018-12-25T16:16:53.308Z,99883.31
2018-12-25T16:19:24.568Z,99891.45
2018-12-25T16:21:55.543Z,99885.85
2018-12-25T16:24:27.548Z,99880.25
2018-12-25T16:26:58.860Z,99877.61
2018-12-25T16:29:29.870Z,99877.54
2018-12-25T16:32:00.777Z,99872.88
2018-12-25T16:34:31.880Z,99871.17
2018-12-25T16:37:02.760Z,99878.45
2018-12-25T16:39:33.987Z,99884.05
2018-12-25T16:42:05.096Z,99885.33
2018-12-25T16:44:37.996Z,99880.63
2018-12-25T16:47:09.067Z,99874.23
2018-12-25T16:49:40.129Z,99870.76
2018-12-25T16:52:11.153Z,99866.45
2018-12-25T16:54:42.461Z,99865.16
2018-12-25T16:57:13.377Z,99878.48
2018-12-25T16:59:44.275Z,99868.19
2018-12-25T17:02:15.365Z,99867.73
2018-12-25T17:04:46.237Z,99868.16
2018-12-25T17:07:17.138Z,99877.16
2018-12-25T17:09:48.058Z,99873.33
2018-12-25T17:12:19.094Z,99868.19
2018-12-25T17:14:50.038Z,99869.89
2018-12-25T17:17:20.970Z,99878.93
2018-12-25T17:19:52.494Z,99880.22
2018-12-25T17:22:23.603Z,99880.22
2018-12-25T17:24:54.754Z,99880.22
2018-12-25T17:27:25.668Z,99873.33
2018-12-25T17:29:56.654Z,99867.31
2018-12-25T17:32:27.664Z,99866.00
2018-12-25T17:34:58.647Z,99856.98
2018-12-25T17:37:29.624Z,99860.40
2018-12-25T17:40:00.681Z,99858.63
2018-12-25T17:42:31.950Z,99858.63
2018-12-25T17:45:02.913Z,99851.33
2018-12-25T17:47:33.860Z,99863.73
2018-12-25T17:50:05.801Z,99867.18
2018-12-25T17:52:36.740Z,99851.30
2018-12-25T17:55:07.857Z,99851.67
2018-12-25T17:57:39.130Z,99846.08
2018-12-25T18:00:10.265Z,99854.59
2018-12-25T18:02:41.337Z,99858.42
2018-12-25T18:05:12.303Z,99857.52
2018-12-25T18:07:43.305Z,99856.16
2018-12-25T18:10:14.246Z,99852.69
2018-12-25T18:12:45.237Z,99861.20
2018-12-25T18:15:16.305Z,99847.41
2018-12-25T18:17:47.354Z,99848.17
2018-12-25T18:20:18.281Z,99851.50
2018-12-25T18:22:49.191Z,99853.12
2018-12-25T18:25:20.164Z,99850.94
2018-12-25T18:27:51.267Z,99847.50
2018-12-25T18:30:22.176Z,99847.34
2018-12-25T18:32:53.241Z,99852.42
2018-12-25T18:35:24.203Z,99854.08
2018-12-25T18:37:55.164Z,99858.43
2018-12-25T18:40:27.925Z,99857.22
2018-12-25T18:42:58.816Z,99862.89
2018-12-25T18:45:29.786Z,99862.02
2018-12-25T18:48:00.827Z,99863.76
2018-12-25T18:50:36.397Z,99865.08
2018-12-25T18:53:09.369Z,99863.34
2018-12-25T18:55:40.440Z,99866.81
2018-12-25T18:58:11.634Z,99873.17
2018-12-25T19:00:42.608Z,99860.70
2018-12-25T19:03:13.827Z,99868.79
2018-12-25T19:05:45.938Z,99871.73
2018-12-25T19:08:16.839Z,99877.33
2018-12-25T19:10:48.196Z,99868.33
2018-12-25T19:13:19.202Z,99884.89
2018-12-25T19:15:54.369Z,99872.22
2018-12-25T19:18:25.336Z,99865.22
2018-12-25T19:20:56.746Z,99868.02
2018-12-25T19:23:29.342Z,99857.20
2018-12-25T19:26:01.771Z,99856.66
2018-12-25T19:28:32.808Z,99859.48
2018-12-25T19:31:03.930Z,99862.05
2018-12-25T19:33:35.014Z,99848.58
2018-12-25T19:36:05.995Z,99843.41
2018-12-25T19:38:36.988Z,99845.30
2018-12-25T19:41:07.935Z,99857.64
2018-12-25T19:43:39.070Z,99850.85
2018-12-25T19:46:10.107Z,99849.02
2018-12-25T19:48:41.463Z,99846.73
2018-12-25T19:52:11.947Z,99846.61
2018-12-25T19:54:48.011Z,99854.69
2018-12-25T19:57:19.119Z,99841.94
2018-12-25T19:59:50.190Z,99849.88
2018-12-25T20:02:21.097Z,99846.84
2018-12-25T20:04:57.638Z,99855.23
2018-12-25T20:07:53.020Z,99850.11
2018-12-25T20:10:50.459Z,99852.76
2018-12-25T20:13:26.986Z,99849.61
2018-12-25T20:16:16.025Z,99847.91
2018-12-25T20:18:50.246Z,99853.03
2018-12-25T20:21:59.530Z,99845.33
2018-12-25T20:24:52.777Z,99848.27
2018-12-25T20:27:42.730Z,99842.55
2018-12-25T20:30:39.201Z,99841.08
2018-12-25T20:33:28.260Z,99844.79
2018-12-25T20:36:08.118Z,99840.80
2018-12-25T20:39:09.257Z,99838.09
2018-12-25T20:41:46.188Z,99835.98
2018-12-25T20:44:49.305Z,99835.98
2018-12-25T20:47:42.340Z,99829.12
2018-12-25T20:50:19.369Z,99826.95
2018-12-25T20:53:16.118Z,99821.55
2018-12-25T20:55:52.770Z,99822.61
2018-12-25T20:58:46.193Z,99831.54
2018-12-25T21:01:25.987Z,99822.61
2018-12-25T21:04:02.825Z,99819.30
2018-12-25T21:07:10.048Z,99820.81
2018-12-25T21:09:46.605Z,99820.28
2018-12-25T21:12:32.499Z,99822.47
2018-12-25T21:15:31.422Z,99826.83
2018-12-25T21:18:25.320Z,99821.33
2018-12-25T21:21:02.411Z,99817.57
2018-12-25T21:24:10.047Z,99815.52
2018-12-25T21:27:17.363Z,99814.55
2018-12-25T21:29:48.526Z,99810.52
2018-12-25T21:32:19.633Z,99810.47
2018-12-25T21:34:51.109Z,99813.31
2018-12-25T21:37:22.567Z,99808.17
2018-12-25T21:39:53.681Z,99805.30
2018-12-25T21:42:25.781Z,99797.70
2018-12-25T21:44:57.478Z,99802.32
2018-12-25T21:47:29.003Z,99808.19
2018-12-25T21:50:00.483Z,99807.36
2018-12-25T21:52:31.487Z,99805.30
2018-12-25T21:55:19.092Z,99807.72
2018-12-25T21:57:50.862Z,99806.44
2018-12-25T22:00:21.982Z,99804.61
2018-12-25T22:02:53.285Z,99799.84
2018-12-25T22:05:25.064Z,99800.20
2018-12-25T22:07:56.001Z,99797.14
2018-12-25T22:10:26.936Z,99801.95
2018-12-25T22:12:57.818Z,99796.50
2018-12-25T22:15:28.843Z,99795.45
2018-12-25T22:18:00.567Z,99790.91
2018-12-25T22:20:31.502Z,99788.66
2018-12-25T22:23:02.524Z,99792.95
2018-12-25T22:25:33.650Z,99787.46
2018-12-25T22:28:04.579Z,99788.39
2018-12-25T22:30:35.539Z,99776.70
2018-12-25T22:33:06.559Z,99778.66
2018-12-25T22:35:37.665Z,99777.64
2018-12-25T22:38:08.554Z,99778.33
2018-12-25T22:40:39.608Z,99777.64
2018-12-25T22:43:10.639Z,99780.94
2018-12-25T22:45:41.702Z,99787.80
2018-12-25T22:48:12.657Z,99786.98
2018-12-25T22:50:43.624Z,99785.20
2018-12-25T22:53:14.652Z,99786.22
2018-12-25T22:55:45.532Z,99791.75
2018-12-25T22:58:16.495Z,99799.64
2018-12-25T23:00:49.292Z,99793.66
2018-12-25T23:03:20.353Z,99790.80
2018-12-25T23:05:51.478Z,99795.91
2018-12-25T23:08:22.479Z,99796.73
2018-12-25T23:10:53.512Z,99793.92
2018-12-25T23:13:24.595Z,99790.13
2018-12-25T23:15:55.604Z,99787.87
2018-12-25T23:18:26.629Z,99786.65
2018-12-25T23:20:57.471Z,99775.72
2018-12-25T23:23:28.439Z,99773.83
2018-12-25T23:25:59.327Z,99773.83
2018-12-25T23:28:30.239Z,99779.81
2018-12-25T23:31:01.139Z,99772.95
2018-12-25T23:33:32.008Z,99772.08
2018-12-25T23:36:03.007Z,99772.49
2018-12-25T23:38:33.953Z,99766.86
2018-12-25T23:41:04.909Z,99770.75
2018-12-25T23:43:35.770Z,99773.01
2018-12-25T23:46:06.800Z,99768.39
2018-12-25T23:48:37.926Z,99769.30
2018-12-25T23:51:08.852Z,99763.83
2018-12-25T23:53:39.725Z,99766.89
2018-12-25T23:56:10.744Z,99763.96
2018-12-25T23:58:41.783Z,99758.44
